createdAt,value
2023-01-03T00:01:38.442Z,102096.59
2023-01-03T00:03:40.665Z,102089.72
2023-01-03T00:05:43.163Z,102092.63
2023-01-03T00:07:45.084Z,102084.06
2023-01-03T00:09:47.063Z,102077.59
2023-01-03T00:12:00.322Z,102079.34
2023-01-03T00:14:02.250Z,102067.53
2023-01-03T00:16:04.591Z,102060.03
2023-01-03T00:18:06.568Z,102060.03
2023-01-03T00:20:10.365Z,102056.91
2023-01-03T00:22:13.923Z,102055.69
2023-01-03T00:24:16.542Z,102051.69
2023-01-03T00:26:18.778Z,102050.88
2023-01-03T00:28:20.842Z,102053.53
2023-01-03T00:30:23.083Z,102056.97
2023-01-03T00:32:25.042Z,102059.66
2023-01-03T00:34:27.503Z,102057.38
2023-01-03T00:36:29.472Z,102061.94
2023-01-03T00:38:31.602Z,102056.72
2023-01-03T00:40:33.615Z,102062.66
2023-01-03T00:42:55.466Z,102058.41
2023-01-03T00:44:57.407Z,102068.22
2023-01-03T00:46:59.808Z,102060.91
2023-01-03T00:49:02.405Z,102054.09
2023-01-03T00:51:09.049Z,102049.22
2023-01-03T00:53:11.043Z,102042.59
2023-01-03T00:55:13.043Z,102041.13
2023-01-03T00:57:15.012Z,102039.22
2023-01-03T00:59:18.622Z,102026.72
2023-01-03T01:01:25.376Z,102028.34
2023-01-03T01:03:27.517Z,102028.69
2023-01-03T01:05:30.569Z,102035.72
2023-01-03T01:07:32.704Z,102035.72
2023-01-03T01:09:37.075Z,102032.84
2023-01-03T01:11:39.622Z,102032.03
2023-01-03T01:13:42.966Z,102032.91
2023-01-03T01:15:44.972Z,102032.03
2023-01-03T01:17:46.950Z,102037.69
2023-01-03T01:19:49.022Z,102037.84
2023-01-03T01:21:51.186Z,102040.34
2023-01-03T01:23:53.992Z,102040.19
2023-01-03T01:26:00.810Z,102045.81
2023-01-03T01:28:03.303Z,102035.78
2023-01-03T01:30:06.082Z,102031.16
2023-01-03T01:32:08.170Z,102033.63
2023-01-03T01:34:10.682Z,102028.69
2023-01-03T01:36:17.681Z,102032.66
2023-01-03T01:38:19.585Z,102024.44
2023-01-03T01:40:21.560Z,102025.16
2023-01-03T01:42:33.842Z,102023.66
2023-01-03T01:44:46.331Z,102023.38
2023-01-03T01:46:49.082Z,102018.44
2023-01-03T01:48:55.569Z,102010.00
2023-01-03T01:50:57.689Z,102017.44
2023-01-03T01:53:05.322Z,102016.25
2023-01-03T01:55:13.191Z,102009.91
2023-01-03T01:57:18.715Z,102014.56
2023-01-03T01:59:20.789Z,102009.03
2023-01-03T02:01:24.357Z,102012.16
2023-01-03T02:03:26.520Z,102013.03
2023-01-03T02:05:29.921Z,102021.31
2023-01-03T02:07:31.910Z,102012.84
2023-01-03T02:09:35.688Z,102016.22
2023-01-03T02:11:48.388Z,102015.84
2023-01-03T02:14:07.950Z,102014.06
2023-01-03T02:16:29.668Z,102004.88
2023-01-03T02:18:38.485Z,102009.53
2023-01-03T02:21:00.402Z,102012.66
2023-01-03T02:23:27.856Z,102012.66
2023-01-03T02:25:40.921Z,102017.47
2023-01-03T02:27:52.432Z,102017.47
2023-01-03T02:30:11.847Z,102023.06
2023-01-03T02:32:19.802Z,102015.22
2023-01-03T02:34:31.825Z,102015.22
2023-01-03T02:36:52.292Z,102011.13
2023-01-03T02:39:05.002Z,102009.28
2023-01-03T02:41:17.221Z,102008.50
2023-01-03T02:43:29.001Z,102015.28
2023-01-03T02:45:43.921Z,102002.88
2023-01-03T02:47:54.939Z,102006.91
2023-01-03T02:50:02.409Z,101999.59
2023-01-03T02:52:10.971Z,101999.78
2023-01-03T02:54:20.934Z,101990.63
2023-01-03T02:56:30.029Z,102002.72
2023-01-03T02:58:36.610Z,102000.97
2023-01-03T03:00:43.664Z,101989.53
2023-01-03T03:02:52.468Z,101991.69
2023-01-03T03:04:57.861Z,101993.66
2023-01-03T03:07:09.721Z,101988.31
2023-01-03T03:09:11.909Z,101980.16
2023-01-03T03:11:24.259Z,101990.81
2023-01-03T03:13:35.324Z,101983.03
2023-01-03T03:15:44.994Z,101984.16
2023-01-03T03:17:47.742Z,101981.59
2023-01-03T03:20:06.939Z,101970.59
2023-01-03T03:22:23.401Z,101974.16
2023-01-03T03:24:40.261Z,101966.75
2023-01-03T03:26:45.171Z,101958.94
2023-01-03T03:28:52.645Z,101962.84
2023-01-03T03:30:59.816Z,101959.00
2023-01-03T03:33:06.489Z,101965.09
2023-01-03T03:35:12.712Z,101958.34
2023-01-03T03:37:20.423Z,101956.59
2023-01-03T03:39:33.270Z,101959.22
2023-01-03T03:41:53.271Z,101959.34
2023-01-03T03:44:16.319Z,101956.28
2023-01-03T03:46:24.486Z,101955.16
2023-01-03T03:48:57.166Z,101952.88
2023-01-03T03:51:13.250Z,101957.94
2023-01-03T03:53:18.603Z,101958.81
2023-01-03T03:55:28.433Z,101952.88
2023-01-03T03:57:36.381Z,101952.00
2023-01-03T03:59:41.742Z,101948.75
2023-01-03T04:01:46.636Z,101955.91
2023-01-03T04:03:51.641Z,101947.41
2023-01-03T04:06:00.463Z,101951.53
2023-01-03T04:08:02.510Z,101955.03
2023-01-03T04:10:06.391Z,101952.63
2023-01-03T04:12:08.787Z,101946.47
2023-01-03T04:14:11.402Z,101942.47
2023-01-03T04:16:13.637Z,101941.25
2023-01-03T04:18:15.543Z,101936.28
2023-01-03T04:20:19.113Z,101936.28
2023-01-03T04:22:21.062Z,101936.88
2023-01-03T04:24:23.093Z,101934.44
2023-01-03T04:26:25.089Z,101933.03
2023-01-03T04:28:27.033Z,101941.34
2023-01-03T04:30:29.022Z,101937.16
2023-01-03T04:32:30.982Z,101947.88
2023-01-03T04:34:33.114Z,101941.06
2023-01-03T04:36:35.044Z,101936.69
2023-01-03T04:38:37.109Z,101939.25
2023-01-03T04:40:39.151Z,101939.69
2023-01-03T04:42:50.342Z,101942.69
2023-01-03T04:44:52.303Z,101939.78
2023-01-03T04:46:54.263Z,101942.59
2023-01-03T04:48:56.467Z,101943.34
2023-01-03T04:50:59.851Z,101945.84
2023-01-03T04:53:01.828Z,101943.84
2023-01-03T04:55:03.945Z,101942.47
2023-01-03T04:57:05.900Z,101943.69
2023-01-03T04:59:07.872Z,101943.44
2023-01-03T05:01:10.340Z,101948.19
2023-01-03T05:03:12.796Z,101941.53
2023-01-03T05:05:15.009Z,101935.75
2023-01-03T05:07:16.971Z,101935.38
2023-01-03T05:09:19.035Z,101927.78
2023-01-03T05:11:20.968Z,101928.97
2023-01-03T05:13:23.271Z,101931.63
2023-01-03T05:15:25.983Z,101923.47
2023-01-03T05:17:27.992Z,101930.41
2023-01-03T05:19:29.905Z,101931.22
2023-01-03T05:21:41.231Z,101928.09
2023-01-03T05:23:52.209Z,101929.94
2023-01-03T05:25:54.222Z,101937.41
2023-01-03T05:27:57.991Z,101934.03
2023-01-03T05:30:01.347Z,101928.91
2023-01-03T05:32:03.452Z,101924.66
2023-01-03T05:34:05.470Z,101932.56
2023-01-03T05:36:08.360Z,101927.59
2023-01-03T05:38:10.323Z,101936.00
2023-01-03T05:40:12.795Z,101932.91
2023-01-03T05:42:14.771Z,101924.41
2023-01-03T05:44:16.963Z,101931.56
2023-01-03T05:46:19.050Z,101940.38
2023-01-03T05:48:22.119Z,101937.16
2023-01-03T05:50:24.145Z,101941.59
2023-01-03T05:52:26.310Z,101939.66
2023-01-03T05:54:28.282Z,101938.22
2023-01-03T05:56:32.058Z,101935.94
2023-01-03T05:58:34.192Z,101930.97
2023-01-03T06:00:36.266Z,101931.34
2023-01-03T06:02:38.205Z,101931.19
2023-01-03T06:04:40.175Z,101929.72
2023-01-03T06:06:42.264Z,101936.03
2023-01-03T06:08:44.642Z,101929.88
2023-01-03T06:10:46.683Z,101927.84
2023-01-03T06:12:48.825Z,101926.44
2023-01-03T06:14:50.782Z,101935.41
2023-01-03T06:17:02.392Z,101931.50
2023-01-03T06:19:06.510Z,101921.84
2023-01-03T06:21:08.453Z,101925.13
2023-01-03T06:23:10.406Z,101919.19
2023-01-03T06:25:13.590Z,101921.03
2023-01-03T06:27:15.640Z,101919.41
2023-01-03T06:29:17.799Z,101920.28
2023-01-03T06:31:20.110Z,101926.09
2023-01-03T06:33:22.087Z,101927.72
2023-01-03T06:35:24.045Z,101935.97
2023-01-03T06:37:26.045Z,101927.72
2023-01-03T06:39:28.118Z,101929.47
2023-01-03T06:41:31.216Z,101930.34
2023-01-03T06:43:33.438Z,101931.16
2023-01-03T06:45:45.355Z,101930.41
2023-01-03T06:47:57.211Z,101924.75
2023-01-03T06:50:08.344Z,101925.84
2023-01-03T06:52:25.389Z,101924.22
2023-01-03T06:54:30.423Z,101918.97
2023-01-03T06:56:32.380Z,101923.72
2023-01-03T06:58:35.204Z,101928.19
2023-01-03T07:00:38.712Z,101916.53
2023-01-03T07:02:40.839Z,101914.50
2023-01-03T07:04:43.019Z,101919.63
2023-01-03T07:06:45.344Z,101910.53
2023-01-03T07:08:48.693Z,101915.81
2023-01-03T07:10:50.786Z,101912.31
2023-01-03T07:13:02.316Z,101913.34
2023-01-03T07:15:05.461Z,101912.53
2023-01-03T07:17:07.356Z,101919.47
2023-01-03T07:19:14.048Z,101923.00
2023-01-03T07:21:16.103Z,101916.16
2023-01-03T07:23:18.167Z,101920.22
2023-01-03T07:25:20.532Z,101924.03
2023-01-03T07:27:22.984Z,101919.72
2023-01-03T07:29:24.904Z,101912.09
2023-01-03T07:31:27.181Z,101907.03
2023-01-03T07:33:29.325Z,101904.97
2023-01-03T07:35:33.911Z,101907.59
2023-01-03T07:37:36.071Z,101907.03
2023-01-03T07:39:37.986Z,101909.72
2023-01-03T07:41:50.116Z,101906.34
2023-01-03T07:43:52.237Z,101901.00
2023-01-03T07:45:54.172Z,101902.91
2023-01-03T07:47:56.123Z,101897.50
2023-01-03T07:49:58.053Z,101901.09
2023-01-03T07:52:00.016Z,101905.63
2023-01-03T07:54:02.879Z,101902.53
2023-01-03T07:56:13.360Z,101904.22
2023-01-03T07:58:15.703Z,101911.97
2023-01-03T08:00:18.045Z,101903.56
2023-01-03T08:02:20.667Z,101914.22
2023-01-03T08:04:22.755Z,101907.53
2023-01-03T08:06:25.699Z,101905.66
2023-01-03T08:08:28.183Z,101910.59
2023-01-03T08:10:40.489Z,101914.41
2023-01-03T08:13:02.266Z,101902.72
2023-01-03T08:15:05.023Z,101900.06
2023-01-03T08:17:07.144Z,101904.72
2023-01-03T08:19:09.131Z,101900.34
2023-01-03T08:21:14.741Z,101905.53
2023-01-03T08:23:16.640Z,101909.06
2023-01-03T08:25:18.752Z,101903.78
2023-01-03T08:27:20.824Z,101903.47
2023-01-03T08:29:22.847Z,101900.16
2023-01-03T08:31:29.346Z,101894.88
2023-01-03T08:33:38.651Z,101895.94
2023-01-03T08:35:48.986Z,101894.47
2023-01-03T08:37:53.403Z,101901.38
2023-01-03T08:39:58.368Z,101898.13
2023-01-03T08:42:03.920Z,101898.28
2023-01-03T08:44:09.044Z,101904.41
2023-01-03T08:46:13.177Z,101902.78
2023-01-03T08:48:19.431Z,101906.13
2023-01-03T08:50:21.524Z,101900.97
2023-01-03T08:52:23.589Z,101896.09
2023-01-03T08:54:25.607Z,101899.34
2023-01-03T08:56:29.164Z,101901.63
2023-01-03T08:58:31.291Z,101877.84
2023-01-03T09:00:33.282Z,101891.28
2023-01-03T09:02:36.335Z,101894.91
2023-01-03T09:04:40.151Z,101873.78
2023-01-03T09:06:42.144Z,101891.16
2023-01-03T09:08:44.166Z,101879.25
2023-01-03T09:10:47.951Z,101883.41
2023-01-03T09:12:50.782Z,101887.25
2023-01-03T09:14:52.968Z,101885.22
2023-01-03T09:16:54.997Z,101889.13
2023-01-03T09:18:57.036Z,101898.41
2023-01-03T09:20:59.156Z,101886.38
2023-01-03T09:23:01.086Z,101879.94
2023-01-03T09:25:03.578Z,101895.50
2023-01-03T09:27:05.558Z,101883.63
2023-01-03T09:29:07.645Z,101881.81
2023-01-03T09:31:09.782Z,101874.94
2023-01-03T09:33:11.839Z,101879.31
2023-01-03T09:35:14.031Z,101886.31
2023-01-03T09:37:16.273Z,101889.47
2023-01-03T09:39:18.367Z,101881.41
2023-01-03T09:41:23.864Z,101883.34
2023-01-03T09:43:33.311Z,101878.94
2023-01-03T09:45:36.366Z,101878.59
2023-01-03T09:47:39.432Z,101889.69
2023-01-03T09:50:04.651Z,101872.78
2023-01-03T09:52:13.489Z,101876.34
2023-01-03T09:56:46.390Z,101875.56
2023-01-03T09:59:04.350Z,101874.31
2023-01-03T10:01:36.445Z,101871.69
2023-01-03T10:03:51.813Z,101871.31
2023-01-03T10:06:10.942Z,101861.78
2023-01-03T10:08:23.194Z,101870.31
2023-01-03T10:10:42.453Z,101882.25
2023-01-03T10:12:53.381Z,101873.44
2023-01-03T10:14:55.363Z,101866.53
2023-01-03T10:17:18.725Z,101871.19
2023-01-03T10:19:40.462Z,101872.53
2023-01-03T10:21:57.347Z,101873.63
2023-01-03T10:24:00.045Z,101867.56
2023-01-03T10:26:08.732Z,101864.72
2023-01-03T10:28:21.841Z,101859.63
2023-01-03T10:30:41.518Z,101866.16
2023-01-03T10:33:00.386Z,101859.16
2023-01-03T10:35:16.654Z,101859.25
2023-01-03T10:37:20.104Z,101865.97
2023-01-03T10:39:32.109Z,101851.44
2023-01-03T10:41:43.524Z,101845.97
2023-01-03T10:43:56.582Z,101841.75
2023-01-03T10:46:03.189Z,101851.97
2023-01-03T10:48:05.681Z,101853.97
2023-01-03T10:50:08.829Z,101849.09
2023-01-03T10:52:18.558Z,101855.31
2023-01-03T10:54:29.051Z,101857.47
2023-01-03T10:56:31.351Z,101843.31
2023-01-03T10:58:36.571Z,101840.22
2023-01-03T11:00:39.270Z,101845.47
2023-01-03T11:02:49.045Z,101820.53
2023-01-03T11:05:12.663Z,101836.50
2023-01-03T11:07:17.154Z,101820.59
2023-01-03T11:09:19.342Z,101816.38
2023-01-03T11:11:40.552Z,101819.00
2023-01-03T11:13:43.459Z,101817.19
2023-01-03T11:15:45.489Z,101812.88
2023-01-03T11:17:56.845Z,101808.88
2023-01-03T11:19:58.905Z,101811.88
2023-01-03T11:22:05.369Z,101799.13
2023-01-03T11:24:23.537Z,101803.41
2023-01-03T11:26:37.990Z,101792.69
2023-01-03T11:28:44.320Z,101788.16
2023-01-03T11:30:59.485Z,101786.22
2023-01-03T11:33:14.443Z,101795.03
2023-01-03T11:35:24.708Z,101776.13
2023-01-03T11:37:56.639Z,101764.84
2023-01-03T11:40:17.495Z,101768.56
2023-01-03T11:42:19.557Z,101774.41
2023-01-03T11:44:37.421Z,101751.94
2023-01-03T11:46:52.047Z,101762.22
2023-01-03T11:49:03.433Z,101747.03
2023-01-03T11:51:24.524Z,101749.75
2023-01-03T11:53:36.248Z,101742.53
2023-01-03T11:55:56.873Z,101737.03
2023-01-03T11:58:13.445Z,101731.00
2023-01-03T12:00:34.522Z,101730.06
2023-01-03T12:02:48.905Z,101725.38
2023-01-03T12:05:00.473Z,101713.94
2023-01-03T12:07:46.551Z,101714.94
2023-01-03T12:09:54.510Z,101710.81
2023-01-03T12:12:15.426Z,101707.50
2023-01-03T12:14:27.590Z,101723.19
2023-01-03T12:16:37.607Z,101705.38
2023-01-03T12:18:52.562Z,101710.94
2023-01-03T12:21:00.404Z,101706.88
2023-01-03T12:23:07.350Z,101701.13
2023-01-03T12:25:23.091Z,101697.38
2023-01-03T12:27:32.881Z,101689.41
2023-01-03T12:29:47.301Z,101694.19
2023-01-03T12:31:57.558Z,101694.44
2023-01-03T12:34:18.396Z,101672.75
2023-01-03T12:36:41.671Z,101678.91
2023-01-03T12:38:52.929Z,101679.94
2023-01-03T12:41:01.809Z,101699.78
2023-01-03T12:43:11.286Z,101677.34
2023-01-03T12:45:34.701Z,101656.78
2023-01-03T12:47:53.045Z,101671.69
2023-01-03T12:50:09.387Z,101675.78
2023-01-03T12:52:17.268Z,101656.91
2023-01-03T12:54:37.589Z,101660.59
2023-01-03T12:56:49.429Z,101657.41
2023-01-03T12:59:01.440Z,101669.66
2023-01-03T13:01:18.114Z,101655.41
2023-01-03T13:03:39.513Z,101654.28
2023-01-03T13:05:50.558Z,101649.59
2023-01-03T13:08:02.249Z,101642.19
2023-01-03T13:10:09.509Z,101644.16
2023-01-03T13:12:19.324Z,101634.97
2023-01-03T13:14:24.200Z,101633.81
2023-01-03T13:16:40.606Z,101630.47
2023-01-03T13:18:42.743Z,101635.84
2023-01-03T13:20:50.007Z,101641.94
2023-01-03T13:22:54.328Z,101628.19
2023-01-03T13:25:25.490Z,101626.84
2023-01-03T13:27:36.829Z,101619.13
2023-01-03T13:29:43.808Z,101618.47
2023-01-03T13:32:03.925Z,101627.91
2023-01-03T13:34:19.303Z,101616.06
2023-01-03T13:36:22.561Z,101607.41
2023-01-03T13:38:31.874Z,101616.88
2023-01-03T13:41:15.955Z,101601.31
2023-01-03T13:43:03.788Z,101602.75
2023-01-03T13:45:15.926Z,101590.81
2023-01-03T13:47:40.887Z,101586.41
2023-01-03T13:49:53.846Z,101584.09
2023-01-03T13:51:58.350Z,101592.84
2023-01-03T13:54:05.909Z,101573.13
2023-01-03T13:56:21.694Z,101591.00
2023-01-03T13:58:27.431Z,101568.84
2023-01-03T14:00:31.415Z,101583.66
2023-01-03T14:02:52.644Z,101554.97
2023-01-03T14:05:11.211Z,101558.00
2023-01-03T14:07:32.488Z,101549.53
2023-01-03T14:09:43.954Z,101541.41
2023-01-03T14:12:05.518Z,101535.25
2023-01-03T14:14:15.960Z,101534.72
2023-01-03T14:16:29.451Z,101524.88
2023-01-03T14:18:33.706Z,101524.88
2023-01-03T14:20:37.854Z,101541.88
2023-01-03T14:22:44.404Z,101534.53
2023-01-03T14:24:51.999Z,101541.47
2023-01-03T14:26:55.341Z,101546.38
2023-01-03T14:28:57.581Z,101543.47
2023-01-03T14:31:02.460Z,101557.81
2023-01-03T14:33:04.773Z,101543.38
2023-01-03T14:35:07.181Z,101526.66
2023-01-03T14:37:14.714Z,101527.59
2023-01-03T14:39:22.817Z,101523.09
2023-01-03T14:41:30.690Z,101512.09
2023-01-03T14:43:35.576Z,101505.78
2023-01-03T14:45:37.813Z,101514.13
2023-01-03T14:47:42.133Z,101514.81
2023-01-03T14:49:50.145Z,101514.38
2023-01-03T14:52:05.885Z,101510.91
2023-01-03T14:54:07.889Z,101512.66
2023-01-03T14:56:11.043Z,101506.06
2023-01-03T14:58:23.880Z,101503.47
2023-01-03T15:00:33.069Z,101496.66
2023-01-03T15:02:39.499Z,101494.91
2023-01-03T15:04:44.430Z,101514.53
2023-01-03T15:07:03.725Z,101499.78
2023-01-03T15:09:22.699Z,101500.22
2023-01-03T15:11:56.621Z,101497.31
2023-01-03T15:14:03.804Z,101513.44
2023-01-03T15:16:15.429Z,101502.78
2023-01-03T15:18:20.747Z,101499.56
2023-01-03T15:20:31.360Z,101511.75
2023-01-03T15:22:40.690Z,101518.63
2023-01-03T15:24:45.598Z,101514.09
2023-01-03T15:26:51.418Z,101519.28
2023-01-03T15:29:05.285Z,101539.59
2023-01-03T15:31:26.902Z,101520.69
2023-01-03T15:33:39.242Z,101510.41
2023-01-03T15:35:43.385Z,101511.63
2023-01-03T15:37:45.412Z,101512.13
2023-01-03T15:39:54.506Z,101495.72
2023-01-03T15:42:43.061Z,101491.66
2023-01-03T15:44:33.045Z,101506.28
2023-01-03T15:46:35.120Z,101497.75
2023-01-03T15:48:37.403Z,101490.09
2023-01-03T15:50:46.644Z,101500.31
2023-01-03T15:52:49.264Z,101495.41
2023-01-03T15:54:51.303Z,101491.13
2023-01-03T15:57:05.470Z,101483.03
2023-01-03T15:59:09.691Z,101511.56
2023-01-03T16:01:13.808Z,101475.97
2023-01-03T16:03:18.050Z,101492.28
2023-01-03T16:05:23.167Z,101485.59
2023-01-03T16:07:26.472Z,101500.34
2023-01-03T16:09:28.584Z,101488.75
2023-01-03T16:11:34.367Z,101479.94
2023-01-03T16:13:42.227Z,101471.47
2023-01-03T16:15:44.529Z,101467.28
2023-01-03T16:17:46.882Z,101462.88
2023-01-03T16:19:49.111Z,101469.84
2023-01-03T16:22:32.804Z,101452.56
2023-01-03T16:24:18.250Z,101451.88
2023-01-03T16:26:20.381Z,101445.91
2023-01-03T16:28:24.319Z,101440.72
2023-01-03T16:30:26.508Z,101431.53
2023-01-03T16:32:30.633Z,101422.91
2023-01-03T16:34:33.970Z,101422.25
2023-01-03T16:36:38.512Z,101423.16
2023-01-03T16:38:40.602Z,101416.13
2023-01-03T16:40:45.110Z,101414.44
2023-01-03T16:42:47.739Z,101419.09
2023-01-03T16:44:50.383Z,101409.00
2023-01-03T16:46:52.373Z,101410.88
2023-01-03T16:48:57.215Z,101399.69
2023-01-03T16:51:00.117Z,101398.25
2023-01-03T16:53:02.153Z,101395.63
2023-01-03T16:55:26.769Z,101390.44
2023-01-03T16:57:29.697Z,101393.41
2023-01-03T16:59:31.933Z,101399.63
2023-01-03T17:01:34.100Z,101405.91
2023-01-03T17:03:41.489Z,101402.47
2023-01-03T17:05:44.420Z,101394.59
2023-01-03T17:07:49.088Z,101386.13
2023-01-03T17:09:51.862Z,101398.78
2023-01-03T17:11:53.928Z,101397.44
2023-01-03T17:14:01.411Z,101389.31
2023-01-03T17:16:05.505Z,101389.59
2023-01-03T17:18:17.645Z,101393.84
2023-01-03T17:20:21.219Z,101384.47
2023-01-03T17:22:23.887Z,101377.66
2023-01-03T17:24:27.692Z,101386.16
2023-01-03T17:26:33.221Z,101374.94
2023-01-03T17:28:35.578Z,101368.09
2023-01-03T17:30:38.375Z,101382.63
2023-01-03T17:32:40.355Z,101359.94
2023-01-03T17:34:42.414Z,101374.78
2023-01-03T17:36:44.524Z,101363.03
2023-01-03T17:38:46.637Z,101350.28
2023-01-03T17:40:52.991Z,101349.28
2023-01-03T17:42:57.251Z,101345.28
2023-01-03T17:45:10.312Z,101341.75
2023-01-03T17:47:25.272Z,101337.31
2023-01-03T17:49:27.298Z,101340.91
2023-01-03T17:51:29.308Z,101340.13
2023-01-03T17:53:31.404Z,101318.31
2023-01-03T17:55:33.487Z,101340.72
2023-01-03T17:57:36.218Z,101338.31
2023-01-03T17:59:38.322Z,101329.69
2023-01-03T18:01:41.598Z,101322.25
2023-01-03T18:03:48.612Z,101329.03
2023-01-03T18:05:51.152Z,101334.94
2023-01-03T18:07:53.289Z,101343.09
2023-01-03T18:09:57.403Z,101317.78
2023-01-03T18:11:59.366Z,101317.22
2023-01-03T18:14:01.428Z,101304.38
2023-01-03T18:16:04.337Z,101331.84
2023-01-03T18:18:06.431Z,101318.41
2023-01-03T18:20:12.491Z,101311.31
2023-01-03T18:22:14.763Z,101307.94
2023-01-03T18:24:18.310Z,101311.34
2023-01-03T18:26:20.429Z,101306.72
2023-01-03T18:28:25.782Z,101295.44
2023-01-03T18:30:27.842Z,101292.09
2023-01-03T18:32:32.751Z,101307.75
2023-01-03T18:34:34.726Z,101293.94
2023-01-03T18:36:41.771Z,101288.97
2023-01-03T18:38:43.743Z,101292.56
2023-01-03T18:40:45.848Z,101295.00
2023-01-03T18:42:58.275Z,101295.06
2023-01-03T18:45:01.207Z,101292.19
2023-01-03T18:47:03.211Z,101276.31
2023-01-03T18:49:05.192Z,101278.09
2023-01-03T18:51:14.413Z,101278.41
2023-01-03T18:53:21.063Z,101293.94
2023-01-03T18:55:26.391Z,101268.16
2023-01-03T18:57:28.523Z,101266.63
2023-01-03T18:59:32.167Z,101258.28
2023-01-03T19:01:34.579Z,101256.69
2023-01-03T19:03:42.596Z,101238.75
2023-01-03T19:05:44.690Z,101249.72
2023-01-03T19:07:49.832Z,101247.41
2023-01-03T19:09:52.131Z,101264.94
2023-01-03T19:11:54.878Z,101249.19
2023-01-03T19:14:00.196Z,101246.34
2023-01-03T19:16:02.271Z,101254.16
2023-01-03T19:18:04.572Z,101243.94
2023-01-03T19:20:07.891Z,101253.16
2023-01-03T19:22:26.906Z,101234.38
2023-01-03T19:24:39.029Z,101225.09
2023-01-03T19:26:45.828Z,101236.09
2023-01-03T19:28:47.941Z,101230.16
2023-01-03T19:30:50.614Z,101238.38
2023-01-03T19:32:56.750Z,101222.19
2023-01-03T19:34:58.736Z,101221.75
2023-01-03T19:37:01.103Z,101219.84
2023-01-03T19:39:03.182Z,101249.25
2023-01-03T19:41:05.482Z,101228.53
2023-01-03T19:43:07.646Z,101217.59
2023-01-03T19:45:32.123Z,101221.00
2023-01-03T19:47:34.035Z,101211.66
2023-01-03T19:49:36.090Z,101202.41
2023-01-03T19:51:38.024Z,101219.19
2023-01-03T19:53:40.281Z,101215.00
2023-01-03T19:55:45.924Z,101197.09
2023-01-03T19:57:50.562Z,101210.81
2023-01-03T19:59:56.949Z,101191.41
2023-01-03T20:02:24.118Z,101186.69
2023-01-03T20:04:21.328Z,101193.59
2023-01-03T20:06:23.601Z,101182.69
2023-01-03T20:08:25.924Z,101194.78
2023-01-03T20:10:33.274Z,101201.53
2023-01-03T20:12:35.287Z,101176.41
2023-01-03T20:14:39.240Z,101168.91
2023-01-03T20:16:41.260Z,101177.59
2023-01-03T20:18:43.702Z,101183.13
2023-01-03T20:20:45.642Z,101162.91
2023-01-03T20:23:06.195Z,101191.06
2023-01-03T20:25:20.038Z,101176.50
2023-01-03T20:27:23.031Z,101169.00
2023-01-03T20:29:25.022Z,101167.81
2023-01-03T20:31:28.268Z,101155.88
2023-01-03T20:33:30.827Z,101175.81
2023-01-03T20:37:57.809Z,101166.34
2023-01-03T20:40:00.120Z,101172.47
2023-01-03T20:42:04.007Z,101168.38
2023-01-03T20:44:08.207Z,101166.94
2023-01-03T20:46:20.369Z,101160.19
2023-01-03T20:48:25.971Z,101166.97
2023-01-03T20:50:29.606Z,101156.59
2023-01-03T20:52:31.761Z,101155.72
2023-01-03T20:54:33.814Z,101161.72
2023-01-03T20:56:36.055Z,101161.19
2023-01-03T20:58:41.666Z,101175.72
2023-01-03T21:00:44.455Z,101160.84
2023-01-03T21:02:46.734Z,101157.84
2023-01-03T21:04:49.262Z,101158.94
2023-01-03T21:06:54.844Z,101168.31
2023-01-03T21:08:58.324Z,101159.63
2023-01-03T21:11:00.703Z,101170.78
2023-01-03T21:13:02.991Z,101161.34
2023-01-03T21:15:05.787Z,101149.53
2023-01-03T21:17:11.579Z,101160.66
2023-01-03T21:19:16.295Z,101156.34
2023-01-03T21:21:21.425Z,101169.94
2023-01-03T21:23:23.939Z,101148.75
2023-01-03T21:25:29.004Z,101156.66
2023-01-03T21:27:31.804Z,101140.28
2023-01-03T21:29:38.507Z,101154.81
2023-01-03T21:31:42.936Z,101148.97
2023-01-03T21:33:45.357Z,101141.34
2023-01-03T21:35:50.813Z,101150.84
2023-01-03T21:37:54.615Z,101148.09
2023-01-03T21:39:59.025Z,101155.16
2023-01-03T21:42:10.343Z,101154.34
2023-01-03T21:44:12.693Z,101153.66
2023-01-03T21:46:19.409Z,101161.38
2023-01-03T21:48:21.537Z,101150.31
2023-01-03T21:50:24.570Z,101161.56
2023-01-03T21:52:26.614Z,101141.81
2023-01-03T21:54:28.870Z,101161.56
2023-01-03T21:56:31.075Z,101158.13
2023-01-03T21:58:33.046Z,101171.88
2023-01-03T22:00:35.094Z,101163.03
2023-01-03T22:02:46.454Z,101144.06
2023-01-03T22:04:48.648Z,101168.19
2023-01-03T22:06:50.613Z,101148.75
2023-01-03T22:08:52.888Z,101173.63
2023-01-03T22:10:54.830Z,101165.91
2023-01-03T22:12:59.644Z,101155.56
2023-01-03T22:15:01.604Z,101170.28
2023-01-03T22:17:03.645Z,101171.94
2023-01-03T22:19:05.647Z,101173.81
2023-01-03T22:21:10.357Z,101176.47
2023-01-03T22:23:12.511Z,101177.47
2023-01-03T22:25:18.240Z,101176.50
2023-01-03T22:27:20.271Z,101173.22
2023-01-03T22:29:22.266Z,101192.16
2023-01-03T22:31:24.317Z,101175.78
2023-01-03T22:33:26.469Z,101180.75
2023-01-03T22:35:28.445Z,101177.47
2023-01-03T22:37:30.434Z,101173.16
2023-01-03T22:39:32.514Z,101187.84
2023-01-03T22:41:38.671Z,101172.41
2023-01-03T22:43:41.143Z,101176.72
2023-01-03T22:45:43.139Z,101187.91
2023-01-03T22:47:45.239Z,101170.78
2023-01-03T22:49:47.303Z,101191.94
2023-01-03T22:51:49.409Z,101202.31
2023-01-03T22:53:51.648Z,101169.81
2023-01-03T22:55:53.622Z,101186.91
2023-01-03T22:57:55.623Z,101169.00
2023-01-03T22:59:57.601Z,101169.50
2023-01-03T23:02:00.376Z,101154.88
2023-01-03T23:04:03.774Z,101167.97
2023-01-03T23:06:07.615Z,101160.94
2023-01-03T23:08:09.564Z,101170.44
2023-01-03T23:10:13.153Z,101169.63
2023-01-03T23:12:24.202Z,101162.91
2023-01-03T23:14:27.453Z,101177.53
2023-01-03T23:16:29.575Z,101162.75
2023-01-03T23:18:33.544Z,101170.66
2023-01-03T23:20:35.852Z,101177.47
2023-01-03T23:22:38.111Z,101179.19
2023-01-03T23:24:40.073Z,101167.06
2023-01-03T23:26:42.335Z,101202.44
2023-01-03T23:28:44.489Z,101182.63
2023-01-03T23:30:46.692Z,101189.59
2023-01-03T23:32:48.652Z,101180.81
2023-01-03T23:34:50.589Z,101167.09
2023-01-03T23:36:52.691Z,101171.28
2023-01-03T23:38:55.979Z,101177.34
2023-01-03T23:40:57.993Z,101190.25
2023-01-03T23:43:00.005Z,101210.72
2023-01-03T23:45:01.959Z,101168.41
2023-01-03T23:47:11.031Z,101165.00
2023-01-03T23:49:13.825Z,101189.13
2023-01-03T23:51:16.609Z,101171.22
2023-01-03T23:53:18.851Z,101178.88
2023-01-03T23:55:20.774Z,101167.78
2023-01-03T23:57:22.722Z,101177.28
2023-01-03T23:59:24.623Z,101179.19
